sensor_id;sensor_type;location;lat;lon;timestamp;P1;durP1;ratioP1;P2;durP2;ratioP2
7529;SDS011;3806;52.270;10.544;2022-07-22T00:01:13;7.00;;;5.07;;
7529;SDS011;3806;52.270;10.544;2022-07-22T00:03:39;6.00;;;4.53;;
7529;SDS011;3806;52.270;10.544;2022-07-22T00:06:04;4.97;;;3.70;;
7529;SDS011;3806;52.270;10.544;2022-07-22T00:08:30;6.32;;;5.15;;
7529;SDS011;3806;52.270;10.544;2022-07-22T00:10:56;6.80;;;4.72;;
7529;SDS011;3806;52.270;10.544;2022-07-22T00:13:22;6.72;;;4.85;;
7529;SDS011;3806;52.270;10.544;2022-07-22T00:15:48;6.53;;;5.05;;
7529;SDS011;3806;52.270;10.544;2022-07-22T00:18:14;4.85;;;3.97;;
7529;SDS011;3806;52.270;10.544;2022-07-22T00:20:39;6.05;;;4.55;;
7529;SDS011;3806;52.270;10.544;2022-07-22T00:23:05;7.07;;;4.93;;
7529;SDS011;3806;52.270;10.544;2022-07-22T00:25:30;5.38;;;4.63;;
7529;SDS011;3806;52.270;10.544;2022-07-22T00:27:56;5.63;;;4.65;;
7529;SDS011;3806;52.270;10.544;2022-07-22T00:30:22;6.25;;;4.20;;
7529;SDS011;3806;52.270;10.544;2022-07-22T00:32:47;5.65;;;4.47;;
7529;SDS011;3806;52.270;10.544;2022-07-22T00:35:13;6.00;;;4.30;;
7529;SDS011;3806;52.270;10.544;2022-07-22T00:37:38;5.53;;;4.05;;
7529;SDS011;3806;52.270;10.544;2022-07-22T00:40:04;6.13;;;4.00;;
7529;SDS011;3806;52.270;10.544;2022-07-22T00:42:31;5.82;;;4.30;;
7529;SDS011;3806;52.270;10.544;2022-07-22T00:44:56;7.00;;;4.95;;
7529;SDS011;3806;52.270;10.544;2022-07-22T00:47:22;7.68;;;5.00;;
7529;SDS011;3806;52.270;10.544;2022-07-22T00:49:48;7.50;;;4.60;;
7529;SDS011;3806;52.270;10.544;2022-07-22T00:52:14;5.38;;;4.00;;
7529;SDS011;3806;52.270;10.544;2022-07-22T00:54:39;5.35;;;4.45;;
7529;SDS011;3806;52.270;10.544;2022-07-22T00:57:05;5.35;;;4.05;;
7529;SDS011;3806;52.270;10.544;2022-07-22T00:59:31;8.13;;;4.40;;
7529;SDS011;3806;52.270;10.544;2022-07-22T01:01:56;6.05;;;4.25;;
7529;SDS011;3806;52.270;10.544;2022-07-22T01:04:22;7.82;;;4.88;;
7529;SDS011;3806;52.270;10.544;2022-07-22T01:06:48;7.10;;;4.78;;
7529;SDS011;3806;52.270;10.544;2022-07-22T01:09:13;7.22;;;4.07;;
7529;SDS011;3806;52.270;10.544;2022-07-22T01:11:39;6.03;;;4.72;;
7529;SDS011;3806;52.270;10.544;2022-07-22T01:14:06;5.55;;;4.57;;
7529;SDS011;3806;52.270;10.544;2022-07-22T01:16:31;6.20;;;4.85;;
7529;SDS011;3806;52.270;10.544;2022-07-22T01:18:57;4.57;;;4.00;;
7529;SDS011;3806;52.270;10.544;2022-07-22T01:21:23;6.88;;;4.38;;
7529;SDS011;3806;52.270;10.544;2022-07-22T01:23:49;5.47;;;4.57;;
7529;SDS011;3806;52.270;10.544;2022-07-22T01:26:15;7.13;;;5.57;;
7529;SDS011;3806;52.270;10.544;2022-07-22T01:28:41;11.15;;;5.05;;
7529;SDS011;3806;52.270;10.544;2022-07-22T01:31:07;5.22;;;4.18;;
7529;SDS011;3806;52.270;10.544;2022-07-22T01:33:32;5.60;;;4.20;;
7529;SDS011;3806;52.270;10.544;2022-07-22T01:35:59;6.93;;;4.30;;
7529;SDS011;3806;52.270;10.544;2022-07-22T01:38:24;6.03;;;4.68;;
7529;SDS011;3806;52.270;10.544;2022-07-22T01:40:50;4.78;;;4.03;;
7529;SDS011;3806;52.270;10.544;2022-07-22T01:43:16;5.57;;;4.75;;
7529;SDS011;3806;52.270;10.544;2022-07-22T01:45:46;6.80;;;4.60;;
7529;SDS011;3806;52.270;10.544;2022-07-22T01:48:14;4.82;;;4.03;;
7529;SDS011;3806;52.270;10.544;2022-07-22T01:50:40;6.93;;;4.38;;
7529;SDS011;3806;52.270;10.544;2022-07-22T01:53:07;8.38;;;4.45;;
7529;SDS011;3806;52.270;10.544;2022-07-22T01:55:33;5.18;;;3.97;;
7529;SDS011;3806;52.270;10.544;2022-07-22T01:57:58;6.88;;;4.70;;
7529;SDS011;3806;52.270;10.544;2022-07-22T02:00:24;4.40;;;3.97;;
7529;SDS011;3806;52.270;10.544;2022-07-22T02:02:50;5.60;;;4.45;;
7529;SDS011;3806;52.270;10.544;2022-07-22T02:05:16;6.90;;;4.35;;
7529;SDS011;3806;52.270;10.544;2022-07-22T02:07:41;6.53;;;4.93;;
7529;SDS011;3806;52.270;10.544;2022-07-22T02:10:07;7.70;;;4.90;;
7529;SDS011;3806;52.270;10.544;2022-07-22T02:12:33;5.65;;;4.15;;
7529;SDS011;3806;52.270;10.544;2022-07-22T02:14:59;5.32;;;4.63;;
7529;SDS011;3806;52.270;10.544;2022-07-22T02:17:25;7.57;;;4.68;;
7529;SDS011;3806;52.270;10.544;2022-07-22T02:19:51;11.75;;;5.15;;
7529;SDS011;3806;52.270;10.544;2022-07-22T02:22:16;5.65;;;4.90;;
7529;SDS011;3806;52.270;10.544;2022-07-22T02:24:42;6.28;;;4.75;;
7529;SDS011;3806;52.270;10.544;2022-07-22T02:27:08;6.90;;;4.82;;
7529;SDS011;3806;52.270;10.544;2022-07-22T02:29:33;8.27;;;4.78;;
7529;SDS011;3806;52.270;10.544;2022-07-22T02:31:59;7.38;;;4.68;;
7529;SDS011;3806;52.270;10.544;2022-07-22T02:34:25;6.05;;;4.80;;
7529;SDS011;3806;52.270;10.544;2022-07-22T02:36:51;6.18;;;4.78;;
7529;SDS011;3806;52.270;10.544;2022-07-22T02:39:17;6.65;;;4.63;;
7529;SDS011;3806;52.270;10.544;2022-07-22T02:41:43;7.95;;;4.75;;
7529;SDS011;3806;52.270;10.544;2022-07-22T02:44:09;6.00;;;4.60;;
7529;SDS011;3806;52.270;10.544;2022-07-22T02:46:34;6.97;;;4.65;;
7529;SDS011;3806;52.270;10.544;2022-07-22T02:49:00;6.43;;;5.03;;
7529;SDS011;3806;52.270;10.544;2022-07-22T02:51:26;8.82;;;5.63;;
7529;SDS011;3806;52.270;10.544;2022-07-22T02:53:51;8.32;;;5.25;;
7529;SDS011;3806;52.270;10.544;2022-07-22T02:56:17;7.32;;;4.75;;
7529;SDS011;3806;52.270;10.544;2022-07-22T02:58:44;5.75;;;4.45;;
7529;SDS011;3806;52.270;10.544;2022-07-22T03:01:11;5.43;;;4.40;;
7529;SDS011;3806;52.270;10.544;2022-07-22T03:03:37;8.27;;;4.82;;
7529;SDS011;3806;52.270;10.544;2022-07-22T03:06:03;9.02;;;4.47;;
7529;SDS011;3806;52.270;10.544;2022-07-22T03:08:29;6.97;;;4.90;;
7529;SDS011;3806;52.270;10.544;2022-07-22T03:10:54;5.93;;;4.45;;
7529;SDS011;3806;52.270;10.544;2022-07-22T03:13:20;6.93;;;4.90;;
7529;SDS011;3806;52.270;10.544;2022-07-22T03:15:45;7.63;;;5.10;;
7529;SDS011;3806;52.270;10.544;2022-07-22T03:18:12;6.82;;;4.78;;
7529;SDS011;3806;52.270;10.544;2022-07-22T03:20:37;7.70;;;5.32;;
7529;SDS011;3806;52.270;10.544;2022-07-22T03:23:03;8.18;;;5.70;;
7529;SDS011;3806;52.270;10.544;2022-07-22T03:25:29;10.27;;;5.72;;
7529;SDS011;3806;52.270;10.544;2022-07-22T03:27:56;7.72;;;5.50;;
7529;SDS011;3806;52.270;10.544;2022-07-22T03:30:22;7.82;;;5.57;;
7529;SDS011;3806;52.270;10.544;2022-07-22T03:32:47;8.65;;;5.90;;
7529;SDS011;3806;52.270;10.544;2022-07-22T03:35:15;8.73;;;5.68;;
7529;SDS011;3806;52.270;10.544;2022-07-22T03:37:41;9.10;;;6.07;;
7529;SDS011;3806;52.270;10.544;2022-07-22T03:40:07;7.90;;;5.28;;
7529;SDS011;3806;52.270;10.544;2022-07-22T03:42:33;7.97;;;5.90;;
7529;SDS011;3806;52.270;10.544;2022-07-22T03:44:59;7.93;;;5.55;;
7529;SDS011;3806;52.270;10.544;2022-07-22T03:47:24;6.82;;;5.28;;
7529;SDS011;3806;52.270;10.544;2022-07-22T03:49:50;9.02;;;5.35;;
7529;SDS011;3806;52.270;10.544;2022-07-22T03:52:16;6.70;;;4.88;;
7529;SDS011;3806;52.270;10.544;2022-07-22T03:54:42;7.82;;;5.43;;
7529;SDS011;3806;52.270;10.544;2022-07-22T03:57:08;7.53;;;5.40;;
7529;SDS011;3806;52.270;10.544;2022-07-22T03:59:35;5.95;;;4.40;;
7529;SDS011;3806;52.270;10.544;2022-07-22T04:02:01;8.70;;;5.57;;
7529;SDS011;3806;52.270;10.544;2022-07-22T04:04:27;7.10;;;5.22;;
7529;SDS011;3806;52.270;10.544;2022-07-22T04:06:52;8.13;;;5.45;;
7529;SDS011;3806;52.270;10.544;2022-07-22T04:09:18;7.15;;;5.00;;
7529;SDS011;3806;52.270;10.544;2022-07-22T04:11:44;6.85;;;4.47;;
7529;SDS011;3806;52.270;10.544;2022-07-22T04:14:10;6.18;;;4.32;;
7529;SDS011;3806;52.270;10.544;2022-07-22T04:16:36;6.90;;;3.90;;
7529;SDS011;3806;52.270;10.544;2022-07-22T04:19:02;5.60;;;3.78;;
7529;SDS011;3806;52.270;10.544;2022-07-22T04:21:28;5.95;;;3.85;;
7529;SDS011;3806;52.270;10.544;2022-07-22T04:23:54;5.90;;;3.75;;
7529;SDS011;3806;52.270;10.544;2022-07-22T04:26:20;6.05;;;3.88;;
7529;SDS011;3806;52.270;10.544;2022-07-22T04:28:46;5.97;;;4.15;;
7529;SDS011;3806;52.270;10.544;2022-07-22T04:31:11;5.95;;;4.45;;
7529;SDS011;3806;52.270;10.544;2022-07-22T04:33:37;7.20;;;4.40;;
7529;SDS011;3806;52.270;10.544;2022-07-22T04:36:03;8.40;;;4.65;;
7529;SDS011;3806;52.270;10.544;2022-07-22T04:38:29;9.27;;;5.00;;
7529;SDS011;3806;52.270;10.544;2022-07-22T04:40:54;9.75;;;4.88;;
7529;SDS011;3806;52.270;10.544;2022-07-22T04:43:20;6.25;;;3.55;;
7529;SDS011;3806;52.270;10.544;2022-07-22T04:45:46;6.47;;;3.78;;
7529;SDS011;3806;52.270;10.544;2022-07-22T04:48:12;5.43;;;2.97;;
7529;SDS011;3806;52.270;10.544;2022-07-22T04:50:37;4.60;;;3.00;;
7529;SDS011;3806;52.270;10.544;2022-07-22T04:53:03;5.00;;;2.58;;
7529;SDS011;3806;52.270;10.544;2022-07-22T04:55:29;4.85;;;2.65;;
7529;SDS011;3806;52.270;10.544;2022-07-22T04:57:54;4.45;;;2.38;;
7529;SDS011;3806;52.270;10.544;2022-07-22T05:00:20;3.47;;;2.25;;
7529;SDS011;3806;52.270;10.544;2022-07-22T05:02:46;3.35;;;2.08;;
7529;SDS011;3806;52.270;10.544;2022-07-22T05:05:12;4.45;;;2.20;;
7529;SDS011;3806;52.270;10.544;2022-07-22T05:07:37;2.75;;;1.55;;
7529;SDS011;3806;52.270;10.544;2022-07-22T05:10:03;3.83;;;1.98;;
7529;SDS011;3806;52.270;10.544;2022-07-22T05:12:29;3.42;;;1.92;;
7529;SDS011;3806;52.270;10.544;2022-07-22T05:14:55;3.63;;;2.03;;
7529;SDS011;3806;52.270;10.544;2022-07-22T05:17:20;3.65;;;1.98;;
7529;SDS011;3806;52.270;10.544;2022-07-22T05:19:46;5.05;;;2.30;;
7529;SDS011;3806;52.270;10.544;2022-07-22T05:22:12;3.03;;;1.73;;
7529;SDS011;3806;52.270;10.544;2022-07-22T05:24:37;3.75;;;1.95;;
7529;SDS011;3806;52.270;10.544;2022-07-22T05:27:03;2.45;;;1.58;;
7529;SDS011;3806;52.270;10.544;2022-07-22T05:29:28;2.30;;;1.77;;
7529;SDS011;3806;52.270;10.544;2022-07-22T05:31:54;3.50;;;1.80;;
7529;SDS011;3806;52.270;10.544;2022-07-22T05:34:20;2.67;;;1.77;;
7529;SDS011;3806;52.270;10.544;2022-07-22T05:36:45;3.10;;;1.70;;
7529;SDS011;3806;52.270;10.544;2022-07-22T05:39:11;2.80;;;1.65;;
7529;SDS011;3806;52.270;10.544;2022-07-22T05:41:37;4.60;;;1.98;;
7529;SDS011;3806;52.270;10.544;2022-07-22T05:44:03;3.10;;;1.85;;
7529;SDS011;3806;52.270;10.544;2022-07-22T05:46:29;2.40;;;1.80;;
7529;SDS011;3806;52.270;10.544;2022-07-22T05:48:55;4.18;;;2.33;;
7529;SDS011;3806;52.270;10.544;2022-07-22T05:51:21;3.20;;;1.88;;
7529;SDS011;3806;52.270;10.544;2022-07-22T05:53:46;4.50;;;2.63;;
7529;SDS011;3806;52.270;10.544;2022-07-22T05:56:12;5.07;;;2.45;;
7529;SDS011;3806;52.270;10.544;2022-07-22T05:58:39;4.55;;;2.30;;
7529;SDS011;3806;52.270;10.544;2022-07-22T06:01:06;3.33;;;2.17;;
7529;SDS011;3806;52.270;10.544;2022-07-22T06:03:32;3.45;;;2.28;;
7529;SDS011;3806;52.270;10.544;2022-07-22T06:05:58;3.47;;;2.55;;
7529;SDS011;3806;52.270;10.544;2022-07-22T06:08:23;3.42;;;1.77;;
7529;SDS011;3806;52.270;10.544;2022-07-22T06:10:49;3.22;;;1.80;;
7529;SDS011;3806;52.270;10.544;2022-07-22T06:13:15;2.70;;;1.80;;
7529;SDS011;3806;52.270;10.544;2022-07-22T06:15:40;3.10;;;2.05;;
7529;SDS011;3806;52.270;10.544;2022-07-22T06:18:06;4.85;;;2.03;;
7529;SDS011;3806;52.270;10.544;2022-07-22T06:20:32;3.10;;;2.00;;
7529;SDS011;3806;52.270;10.544;2022-07-22T06:22:58;2.60;;;1.98;;
7529;SDS011;3806;52.270;10.544;2022-07-22T06:25:44;4.13;;;2.55;;
7529;SDS011;3806;52.270;10.544;2022-07-22T06:28:09;3.05;;;2.00;;
7529;SDS011;3806;52.270;10.544;2022-07-22T06:30:35;5.38;;;2.10;;
7529;SDS011;3806;52.270;10.544;2022-07-22T06:33:01;3.13;;;2.08;;
7529;SDS011;3806;52.270;10.544;2022-07-22T06:35:27;3.97;;;1.88;;
7529;SDS011;3806;52.270;10.544;2022-07-22T06:37:53;4.05;;;1.75;;
7529;SDS011;3806;52.270;10.544;2022-07-22T06:40:19;2.65;;;1.80;;
7529;SDS011;3806;52.270;10.544;2022-07-22T06:42:45;2.55;;;1.50;;
7529;SDS011;3806;52.270;10.544;2022-07-22T06:45:10;2.47;;;1.50;;
7529;SDS011;3806;52.270;10.544;2022-07-22T06:47:36;3.17;;;1.60;;
7529;SDS011;3806;52.270;10.544;2022-07-22T06:50:05;3.83;;;1.48;;
7529;SDS011;3806;52.270;10.544;2022-07-22T06:52:32;2.42;;;1.33;;
7529;SDS011;3806;52.270;10.544;2022-07-22T06:54:58;3.15;;;1.45;;
7529;SDS011;3806;52.270;10.544;2022-07-22T06:57:24;1.73;;;1.23;;
7529;SDS011;3806;52.270;10.544;2022-07-22T06:59:50;3.45;;;1.50;;
7529;SDS011;3806;52.270;10.544;2022-07-22T07:02:15;4.88;;;1.83;;
7529;SDS011;3806;52.270;10.544;2022-07-22T07:04:41;2.20;;;1.50;;
7529;SDS011;3806;52.270;10.544;2022-07-22T07:07:07;1.38;;;1.13;;
7529;SDS011;3806;52.270;10.544;2022-07-22T07:09:33;1.88;;;1.30;;
7529;SDS011;3806;52.270;10.544;2022-07-22T07:12:00;4.45;;;1.60;;
7529;SDS011;3806;52.270;10.544;2022-07-22T07:14:25;4.97;;;1.42;;
7529;SDS011;3806;52.270;10.544;2022-07-22T07:16:51;2.42;;;1.38;;
7529;SDS011;3806;52.270;10.544;2022-07-22T07:19:17;1.65;;;1.45;;
7529;SDS011;3806;52.270;10.544;2022-07-22T07:21:44;2.08;;;1.50;;
7529;SDS011;3806;52.270;10.544;2022-07-22T07:24:10;1.33;;;1.00;;
7529;SDS011;3806;52.270;10.544;2022-07-22T07:26:36;1.77;;;1.13;;
7529;SDS011;3806;52.270;10.544;2022-07-22T07:29:02;2.15;;;1.30;;
7529;SDS011;3806;52.270;10.544;2022-07-22T07:31:28;1.92;;;1.00;;
7529;SDS011;3806;52.270;10.544;2022-07-22T07:33:53;3.35;;;1.40;;
7529;SDS011;3806;52.270;10.544;2022-07-22T07:36:19;4.05;;;1.27;;
7529;SDS011;3806;52.270;10.544;2022-07-22T07:38:45;2.85;;;1.58;;
7529;SDS011;3806;52.270;10.544;2022-07-22T07:41:11;3.65;;;1.85;;
7529;SDS011;3806;52.270;10.544;2022-07-22T07:43:36;1.20;;;0.82;;
7529;SDS011;3806;52.270;10.544;2022-07-22T07:46:02;2.25;;;1.30;;
7529;SDS011;3806;52.270;10.544;2022-07-22T07:48:27;2.45;;;1.30;;
7529;SDS011;3806;52.270;10.544;2022-07-22T07:50:53;2.03;;;1.08;;
7529;SDS011;3806;52.270;10.544;2022-07-22T07:53:19;2.97;;;1.40;;
7529;SDS011;3806;52.270;10.544;2022-07-22T07:55:44;2.85;;;0.95;;
7529;SDS011;3806;52.270;10.544;2022-07-22T07:58:10;2.75;;;1.30;;
7529;SDS011;3806;52.270;10.544;2022-07-22T08:00:36;1.58;;;1.23;;
7529;SDS011;3806;52.270;10.544;2022-07-22T08:03:03;4.63;;;1.48;;
7529;SDS011;3806;52.270;10.544;2022-07-22T08:05:30;2.83;;;1.25;;
7529;SDS011;3806;52.270;10.544;2022-07-22T08:07:56;2.30;;;1.30;;
7529;SDS011;3806;52.270;10.544;2022-07-22T08:10:22;2.60;;;1.50;;
7529;SDS011;3806;52.270;10.544;2022-07-22T08:12:48;2.10;;;1.50;;
7529;SDS011;3806;52.270;10.544;2022-07-22T08:15:14;3.33;;;1.63;;
7529;SDS011;3806;52.270;10.544;2022-07-22T08:17:41;2.65;;;1.48;;
7529;SDS011;3806;52.270;10.544;2022-07-22T08:20:06;5.20;;;2.03;;
7529;SDS011;3806;52.270;10.544;2022-07-22T08:22:33;3.20;;;2.17;;
7529;SDS011;3806;52.270;10.544;2022-07-22T08:24:59;2.97;;;1.77;;
7529;SDS011;3806;52.270;10.544;2022-07-22T08:27:24;4.68;;;2.15;;
7529;SDS011;3806;52.270;10.544;2022-07-22T08:29:50;4.03;;;1.88;;
7529;SDS011;3806;52.270;10.544;2022-07-22T08:32:16;3.33;;;1.98;;
7529;SDS011;3806;52.270;10.544;2022-07-22T08:34:41;3.83;;;1.95;;
7529;SDS011;3806;52.270;10.544;2022-07-22T08:37:07;3.70;;;2.58;;
7529;SDS011;3806;52.270;10.544;2022-07-22T08:39:33;4.45;;;3.03;;
7529;SDS011;3806;52.270;10.544;2022-07-22T08:41:59;7.80;;;3.00;;
7529;SDS011;3806;52.270;10.544;2022-07-22T08:44:28;6.80;;;3.13;;
7529;SDS011;3806;52.270;10.544;2022-07-22T08:46:58;6.57;;;2.90;;
7529;SDS011;3806;52.270;10.544;2022-07-22T08:49:25;7.88;;;4.10;;
7529;SDS011;3806;52.270;10.544;2022-07-22T08:51:52;6.10;;;4.25;;
7529;SDS011;3806;52.270;10.544;2022-07-22T08:54:18;7.85;;;4.72;;
7529;SDS011;3806;52.270;10.544;2022-07-22T08:56:47;8.98;;;4.93;;
7529;SDS011;3806;52.270;10.544;2022-07-22T08:59:17;8.00;;;4.35;;
7529;SDS011;3806;52.270;10.544;2022-07-22T09:04:49;5.70;;;4.60;;
7529;SDS011;3806;52.270;10.544;2022-07-22T09:07:24;7.50;;;4.65;;
7529;SDS011;3806;52.270;10.544;2022-07-22T09:09:50;6.53;;;4.35;;
7529;SDS011;3806;52.270;10.544;2022-07-22T09:12:17;6.28;;;4.68;;
7529;SDS011;3806;52.270;10.544;2022-07-22T09:14:46;6.35;;;4.90;;
7529;SDS011;3806;52.270;10.544;2022-07-22T09:17:29;7.80;;;4.75;;
7529;SDS011;3806;52.270;10.544;2022-07-22T09:20:14;9.40;;;4.82;;
7529;SDS011;3806;52.270;10.544;2022-07-22T09:22:42;7.45;;;4.82;;
7529;SDS011;3806;52.270;10.544;2022-07-22T09:27:49;5.72;;;4.03;;
7529;SDS011;3806;52.270;10.544;2022-07-22T09:30:18;5.32;;;4.20;;
7529;SDS011;3806;52.270;10.544;2022-07-22T09:32:49;5.20;;;4.40;;
7529;SDS011;3806;52.270;10.544;2022-07-22T09:35:15;7.05;;;4.53;;
7529;SDS011;3806;52.270;10.544;2022-07-22T09:37:48;6.70;;;4.38;;
7529;SDS011;3806;52.270;10.544;2022-07-22T09:40:16;7.95;;;4.22;;
7529;SDS011;3806;52.270;10.544;2022-07-22T09:43:04;4.85;;;3.72;;
7529;SDS011;3806;52.270;10.544;2022-07-22T09:45:32;6.43;;;4.30;;
7529;SDS011;3806;52.270;10.544;2022-07-22T09:47:58;5.22;;;3.85;;
7529;SDS011;3806;52.270;10.544;2022-07-22T09:50:26;7.45;;;3.95;;
7529;SDS011;3806;52.270;10.544;2022-07-22T09:52:54;6.07;;;4.00;;
7529;SDS011;3806;52.270;10.544;2022-07-22T09:55:21;5.85;;;4.30;;
7529;SDS011;3806;52.270;10.544;2022-07-22T09:57:49;6.25;;;4.55;;
7529;SDS011;3806;52.270;10.544;2022-07-22T10:00:16;7.78;;;4.32;;
7529;SDS011;3806;52.270;10.544;2022-07-22T10:05:14;6.85;;;4.35;;
7529;SDS011;3806;52.270;10.544;2022-07-22T10:07:42;6.85;;;3.92;;
7529;SDS011;3806;52.270;10.544;2022-07-22T10:10:10;9.93;;;4.63;;
7529;SDS011;3806;52.270;10.544;2022-07-22T10:12:37;6.70;;;4.38;;
7529;SDS011;3806;52.270;10.544;2022-07-22T10:15:04;6.78;;;4.72;;
7529;SDS011;3806;52.270;10.544;2022-07-22T10:17:31;6.85;;;4.72;;
7529;SDS011;3806;52.270;10.544;2022-07-22T10:20:04;8.15;;;4.43;;
7529;SDS011;3806;52.270;10.544;2022-07-22T10:25:10;6.78;;;4.53;;
7529;SDS011;3806;52.270;10.544;2022-07-22T10:28:19;7.30;;;3.80;;
7529;SDS011;3806;52.270;10.544;2022-07-22T10:33:11;6.55;;;4.03;;
7529;SDS011;3806;52.270;10.544;2022-07-22T10:35:55;4.85;;;3.65;;
7529;SDS011;3806;52.270;10.544;2022-07-22T10:38:22;5.55;;;3.45;;
7529;SDS011;3806;52.270;10.544;2022-07-22T10:40:50;4.88;;;3.38;;
7529;SDS011;3806;52.270;10.544;2022-07-22T10:43:21;5.55;;;3.55;;
7529;SDS011;3806;52.270;10.544;2022-07-22T10:46:00;6.40;;;3.83;;
7529;SDS011;3806;52.270;10.544;2022-07-22T10:58:44;4.22;;;3.08;;
7529;SDS011;3806;52.270;10.544;2022-07-22T11:01:13;3.65;;;2.65;;
7529;SDS011;3806;52.270;10.544;2022-07-22T11:03:41;4.10;;;2.65;;
7529;SDS011;3806;52.270;10.544;2022-07-22T11:06:17;4.50;;;3.03;;
7529;SDS011;3806;52.270;10.544;2022-07-22T11:08:48;4.53;;;2.40;;
7529;SDS011;3806;52.270;10.544;2022-07-22T11:11:16;5.03;;;2.70;;
7529;SDS011;3806;52.270;10.544;2022-07-22T11:13:42;4.90;;;3.00;;
7529;SDS011;3806;52.270;10.544;2022-07-22T11:16:25;4.93;;;2.17;;
7529;SDS011;3806;52.270;10.544;2022-07-22T11:18:54;5.57;;;2.53;;
7529;SDS011;3806;52.270;10.544;2022-07-22T11:21:22;2.80;;;1.70;;
7529;SDS011;3806;52.270;10.544;2022-07-22T11:23:51;3.88;;;2.15;;
7529;SDS011;3806;52.270;10.544;2022-07-22T11:26:40;2.85;;;1.90;;
7529;SDS011;3806;52.270;10.544;2022-07-22T11:29:05;4.32;;;1.80;;
7529;SDS011;3806;52.270;10.544;2022-07-22T11:31:32;4.32;;;2.42;;
7529;SDS011;3806;52.270;10.544;2022-07-22T11:34:05;5.05;;;2.50;;
7529;SDS011;3806;52.270;10.544;2022-07-22T11:36:32;5.32;;;2.90;;
7529;SDS011;3806;52.270;10.544;2022-07-22T11:38:58;4.70;;;3.22;;
7529;SDS011;3806;52.270;10.544;2022-07-22T11:41:24;5.93;;;3.08;;
7529;SDS011;3806;52.270;10.544;2022-07-22T11:43:53;4.47;;;2.75;;
7529;SDS011;3806;52.270;10.544;2022-07-22T11:46:18;3.25;;;2.95;;
7529;SDS011;3806;52.270;10.544;2022-07-22T11:48:44;4.25;;;3.15;;
7529;SDS011;3806;52.270;10.544;2022-07-22T11:51:11;5.05;;;2.60;;
7529;SDS011;3806;52.270;10.544;2022-07-22T11:53:38;3.47;;;2.78;;
7529;SDS011;3806;52.270;10.544;2022-07-22T11:56:04;3.33;;;2.60;;
7529;SDS011;3806;52.270;10.544;2022-07-22T12:01:01;4.47;;;2.47;;
7529;SDS011;3806;52.270;10.544;2022-07-22T12:03:28;4.57;;;2.30;;
7529;SDS011;3806;52.270;10.544;2022-07-22T12:05:54;3.20;;;1.80;;
7529;SDS011;3806;52.270;10.544;2022-07-22T12:08:20;2.83;;;1.67;;
7529;SDS011;3806;52.270;10.544;2022-07-22T12:10:46;3.00;;;1.98;;
7529;SDS011;3806;52.270;10.544;2022-07-22T12:13:12;2.53;;;1.88;;
7529;SDS011;3806;52.270;10.544;2022-07-22T12:15:40;2.95;;;1.83;;
7529;SDS011;3806;52.270;10.544;2022-07-22T12:20:45;3.92;;;1.85;;
7529;SDS011;3806;52.270;10.544;2022-07-22T12:23:12;3.45;;;1.52;;
7529;SDS011;3806;52.270;10.544;2022-07-22T12:28:23;2.43;;;1.60;;
7529;SDS011;3806;52.270;10.544;2022-07-22T12:30:50;3.58;;;2.00;;
7529;SDS011;3806;52.270;10.544;2022-07-22T12:33:17;3.38;;;2.13;;
7529;SDS011;3806;52.270;10.544;2022-07-22T12:35:43;3.67;;;2.35;;
7529;SDS011;3806;52.270;10.544;2022-07-22T12:38:09;3.78;;;1.95;;
7529;SDS011;3806;52.270;10.544;2022-07-22T12:40:35;5.95;;;2.83;;
7529;SDS011;3806;52.270;10.544;2022-07-22T12:43:04;4.15;;;2.08;;
7529;SDS011;3806;52.270;10.544;2022-07-22T12:45:32;5.07;;;2.53;;
7529;SDS011;3806;52.270;10.544;2022-07-22T12:50:41;7.15;;;3.03;;
7529;SDS011;3806;52.270;10.544;2022-07-22T12:53:10;3.63;;;2.70;;
7529;SDS011;3806;52.270;10.544;2022-07-22T12:55:38;4.88;;;2.85;;
7529;SDS011;3806;52.270;10.544;2022-07-22T12:58:05;5.43;;;3.17;;
7529;SDS011;3806;52.270;10.544;2022-07-22T13:00:33;7.60;;;3.08;;
7529;SDS011;3806;52.270;10.544;2022-07-22T13:03:03;2.90;;;2.47;;
7529;SDS011;3806;52.270;10.544;2022-07-22T13:05:29;5.40;;;3.30;;
7529;SDS011;3806;52.270;10.544;2022-07-22T13:07:55;6.55;;;2.95;;
7529;SDS011;3806;52.270;10.544;2022-07-22T13:10:22;8.00;;;3.20;;
7529;SDS011;3806;52.270;10.544;2022-07-22T13:12:49;4.97;;;3.22;;
7529;SDS011;3806;52.270;10.544;2022-07-22T13:15:15;4.50;;;3.38;;
7529;SDS011;3806;52.270;10.544;2022-07-22T13:17:42;6.47;;;3.65;;
7529;SDS011;3806;52.270;10.544;2022-07-22T13:20:08;4.60;;;3.13;;
7529;SDS011;3806;52.270;10.544;2022-07-22T13:22:35;6.00;;;3.60;;
7529;SDS011;3806;52.270;10.544;2022-07-22T13:25:01;8.20;;;3.53;;
7529;SDS011;3806;52.270;10.544;2022-07-22T13:27:27;6.18;;;3.17;;
7529;SDS011;3806;52.270;10.544;2022-07-22T13:29:53;4.93;;;3.00;;
7529;SDS011;3806;52.270;10.544;2022-07-22T13:32:18;4.97;;;2.90;;
7529;SDS011;3806;52.270;10.544;2022-07-22T13:34:44;6.15;;;3.05;;
7529;SDS011;3806;52.270;10.544;2022-07-22T13:37:10;5.85;;;3.15;;
7529;SDS011;3806;52.270;10.544;2022-07-22T13:39:35;5.82;;;3.55;;
7529;SDS011;3806;52.270;10.544;2022-07-22T13:42:01;5.00;;;3.10;;
7529;SDS011;3806;52.270;10.544;2022-07-22T13:44:27;4.95;;;3.63;;
7529;SDS011;3806;52.270;10.544;2022-07-22T13:46:53;5.13;;;3.15;;
7529;SDS011;3806;52.270;10.544;2022-07-22T13:49:21;3.85;;;2.65;;
7529;SDS011;3806;52.270;10.544;2022-07-22T13:51:47;4.70;;;3.22;;
7529;SDS011;3806;52.270;10.544;2022-07-22T13:54:13;6.93;;;3.15;;
7529;SDS011;3806;52.270;10.544;2022-07-22T13:56:38;7.72;;;3.42;;
7529;SDS011;3806;52.270;10.544;2022-07-22T13:59:04;4.38;;;2.65;;
7529;SDS011;3806;52.270;10.544;2022-07-22T14:01:30;6.95;;;3.30;;
7529;SDS011;3806;52.270;10.544;2022-07-22T14:03:56;5.20;;;2.95;;
7529;SDS011;3806;52.270;10.544;2022-07-22T14:06:22;4.47;;;2.85;;
7529;SDS011;3806;52.270;10.544;2022-07-22T14:08:47;5.57;;;2.72;;
7529;SDS011;3806;52.270;10.544;2022-07-22T14:11:13;4.72;;;2.75;;
7529;SDS011;3806;52.270;10.544;2022-07-22T14:13:39;4.28;;;2.42;;
7529;SDS011;3806;52.270;10.544;2022-07-22T14:16:04;4.45;;;2.65;;
7529;SDS011;3806;52.270;10.544;2022-07-22T14:18:49;4.63;;;2.70;;
7529;SDS011;3806;52.270;10.544;2022-07-22T14:21:14;4.50;;;2.40;;
7529;SDS011;3806;52.270;10.544;2022-07-22T14:23:40;3.45;;;2.63;;
7529;SDS011;3806;52.270;10.544;2022-07-22T14:26:05;6.07;;;2.97;;
7529;SDS011;3806;52.270;10.544;2022-07-22T14:28:31;4.72;;;2.33;;
7529;SDS011;3806;52.270;10.544;2022-07-22T14:30:59;4.20;;;2.70;;
7529;SDS011;3806;52.270;10.544;2022-07-22T14:33:25;3.60;;;2.65;;
7529;SDS011;3806;52.270;10.544;2022-07-22T14:35:50;4.43;;;2.35;;
7529;SDS011;3806;52.270;10.544;2022-07-22T14:38:16;4.65;;;2.60;;
7529;SDS011;3806;52.270;10.544;2022-07-22T14:40:43;6.18;;;2.55;;
7529;SDS011;3806;52.270;10.544;2022-07-22T14:43:08;9.82;;;4.15;;
7529;SDS011;3806;52.270;10.544;2022-07-22T14:45:34;4.90;;;2.80;;
7529;SDS011;3806;52.270;10.544;2022-07-22T14:47:59;5.70;;;3.10;;
7529;SDS011;3806;52.270;10.544;2022-07-22T14:50:25;7.22;;;3.97;;
7529;SDS011;3806;52.270;10.544;2022-07-22T14:52:50;5.63;;;2.92;;
7529;SDS011;3806;52.270;10.544;2022-07-22T14:55:16;5.32;;;2.85;;
7529;SDS011;3806;52.270;10.544;2022-07-22T14:57:41;5.72;;;2.90;;
7529;SDS011;3806;52.270;10.544;2022-07-22T15:00:07;5.15;;;3.03;;
7529;SDS011;3806;52.270;10.544;2022-07-22T15:02:34;4.93;;;3.25;;
7529;SDS011;3806;52.270;10.544;2022-07-22T15:04:59;6.45;;;2.83;;
7529;SDS011;3806;52.270;10.544;2022-07-22T15:07:25;7.65;;;3.28;;
7529;SDS011;3806;52.270;10.544;2022-07-22T15:09:51;6.43;;;2.50;;
7529;SDS011;3806;52.270;10.544;2022-07-22T15:12:16;5.57;;;3.33;;
7529;SDS011;3806;52.270;10.544;2022-07-22T15:14:42;4.10;;;2.65;;
7529;SDS011;3806;52.270;10.544;2022-07-22T15:17:08;3.60;;;2.50;;
7529;SDS011;3806;52.270;10.544;2022-07-22T15:19:33;6.07;;;2.33;;
7529;SDS011;3806;52.270;10.544;2022-07-22T15:21:59;3.17;;;2.30;;
7529;SDS011;3806;52.270;10.544;2022-07-22T15:24:25;6.40;;;2.40;;
7529;SDS011;3806;52.270;10.544;2022-07-22T15:26:50;3.08;;;2.10;;
7529;SDS011;3806;52.270;10.544;2022-07-22T15:29:16;7.97;;;3.17;;
7529;SDS011;3806;52.270;10.544;2022-07-22T15:31:42;3.03;;;2.03;;